Pawnee, Louisiana
Current Conditions -  °F | °C
As of 3:55 PM on Wednesday 28 Jan 2015 (Local Time) from KACP Reporting Station
Clear Clear  
Wind Chill: 72°   Ceiling: Unl
Heat Index: 72°   Visibility: 10mi
Dew Point: 39°   Wind: 8mph
Humidity: 31%   Direction: 180°S
Pressure: 30.18"   Gusts: NA
Location:  30.9922°N, 92.6266°W
Report Text: KACP 282155Z AUTO 18007KT 10SM CLR 22/04 A3018 RMK AO2 T02220041
Loading
Personal Weather Stations






























Interactive Weather Map New forecast layout! Learn more

10-Day Weather Forecast

Advertisements
Track Severe Weather on mobile